Airfield :
LOGIN :

Register | Disclaimer

   EN    FR    IT 

 










Legend :    VFR   Marginal VFR   IFR   Intensive IFR   Very Intensive IFR
Visi :
Ceiling :
>= 8 km
>= 3000ft
5 to 8 km
1000 to 3000 ft
1500m to 5 km
500 to 1000 ft
800 to 1500m
200 to 500 ft
< 800m
< 200 ft
Symbols :   Thunderstorms  Fog  Heavy snow  Heavy precipitations  Wind > 20 kt
SIGMETs :     Misc.  Thunderstorms  Icing  Turbulence  Mountain Waves  Volcanic Ashes







- Airport Elevation : 459 ft
- IATA code : CER
- Download approach charts


LFRC - Cherbourg / Maupertus

CURRENT METAR :
  • 231930Z AUTO 04017G28KT 4900 -RA BR BKN007/// OVC012/// ///TCU 08/07 Q1012

EXPIRED METARs :
  • 231900Z AUTO 04017KT 4400 -RA BR OVC007/// ///TCU 08/07 Q1011
  • 231830Z AUTO 06013KT 4400 -RA BR OVC007/// ///TCU 08/07 Q1011 TEMPO 06015G25KT RA OVC005
  • 231800Z AUTO 06011KT 030V090 3100 RA BR OVC006 08/07 Q1011 TEMPO 06015G25KT
  • 231730Z AUTO 06004KT 020V090 2100 -RA BR BKN004 OVC010 07/07 Q1011 TEMPO 06015G25KT 3000 RA OVC005
  • 231700Z AUTO 07006KT 2000 -DZ BR OVC009 07/07 Q1011 TEMPO 06015G25KT 3000 RA

TAF TAF LFRC
Valid from the 23 at 15:00 until the 24 at 00:00 UTC


231400Z 2315/2324 05013KT 9999 BKN015
TEMPO 2315/2324 06015G25KT 3000 RA OVC005
No reported NOTAMs for that airfield.



MET'MAP, your aeronautical weather chart ! - Copyright ORBIFLY December 2007 - Disclaimer

ORBIFLY MET'MAP TEAM :

Programming & Development : Alexandra Zaïnal
Concept & Development : Baudouin d'Aumeries
Co-Development & Prog : Marc-Olivier Méhu
Technical & hardware support : Manuel Goepfert

Contact : metmap@orbifly.com




SOURCES & CREDITS :

   NOAA